sensor_id;sensor_type;location;lat;lon;timestamp;pressure;altitude;pressure_sealevel;temperature;humidity
57594;BME280;43423;46.510;6.686;2023-12-22T00:01:09;96206.19;;;7.95;100.00
57594;BME280;43423;46.510;6.686;2023-12-22T00:03:42;96202.06;;;7.99;100.00
57594;BME280;43423;46.510;6.686;2023-12-22T00:06:08;96197.16;;;8.03;100.00
57594;BME280;43423;46.510;6.686;2023-12-22T00:08:34;96206.88;;;8.04;100.00
57594;BME280;43423;46.510;6.686;2023-12-22T00:11:00;96199.34;;;7.99;100.00
57594;BME280;43423;46.510;6.686;2023-12-22T00:13:25;96201.31;;;7.99;100.00
57594;BME280;43423;46.510;6.686;2023-12-22T00:15:51;96211.22;;;7.96;100.00
57594;BME280;43423;46.510;6.686;2023-12-22T00:18:16;96213.53;;;7.89;100.00
57594;BME280;43423;46.510;6.686;2023-12-22T00:20:42;96215.59;;;7.79;100.00
57594;BME280;43423;46.510;6.686;2023-12-22T00:23:08;96202.34;;;8.01;100.00
57594;BME280;43423;46.510;6.686;2023-12-22T00:25:33;96202.06;;;7.99;100.00
57594;BME280;43423;46.510;6.686;2023-12-22T00:27:59;96190.19;;;8.02;100.00
57594;BME280;43423;46.510;6.686;2023-12-22T00:30:24;96166.16;;;7.97;100.00
57594;BME280;43423;46.510;6.686;2023-12-22T00:32:50;96160.66;;;8.06;100.00
57594;BME280;43423;46.510;6.686;2023-12-22T00:35:16;96152.78;;;7.99;100.00
57594;BME280;43423;46.510;6.686;2023-12-22T00:37:42;96165.91;;;7.95;100.00
57594;BME280;43423;46.510;6.686;2023-12-22T00:40:09;96184.00;;;8.17;100.00
57594;BME280;43423;46.510;6.686;2023-12-22T00:42:35;96186.44;;;8.15;100.00
57594;BME280;43423;46.510;6.686;2023-12-22T00:45:01;96191.81;;;8.09;100.00
57594;BME280;43423;46.510;6.686;2023-12-22T00:47:27;96185.06;;;7.95;100.00
57594;BME280;43423;46.510;6.686;2023-12-22T00:49:53;96181.50;;;8.04;100.00
57594;BME280;43423;46.510;6.686;2023-12-22T00:52:19;96178.19;;;8.00;100.00
57594;BME280;43423;46.510;6.686;2023-12-22T00:54:44;96180.66;;;8.12;100.00
57594;BME280;43423;46.510;6.686;2023-12-22T00:57:10;96186.81;;;8.07;100.00
57594;BME280;43423;46.510;6.686;2023-12-22T00:59:37;96179.34;;;8.08;100.00
57594;BME280;43423;46.510;6.686;2023-12-22T01:02:02;96176.41;;;8.11;100.00
57594;BME280;43423;46.510;6.686;2023-12-22T01:04:28;96191.34;;;8.10;100.00
57594;BME280;43423;46.510;6.686;2023-12-22T01:06:53;96194.16;;;8.01;100.00
57594;BME280;43423;46.510;6.686;2023-12-22T01:09:19;96181.72;;;8.15;100.00
57594;BME280;43423;46.510;6.686;2023-12-22T01:11:45;96194.16;;;8.01;100.00
57594;BME280;43423;46.510;6.686;2023-12-22T01:14:11;96204.69;;;7.94;100.00
57594;BME280;43423;46.510;6.686;2023-12-22T01:16:39;96206.59;;;8.02;100.00
57594;BME280;43423;46.510;6.686;2023-12-22T01:19:04;96198.09;;;8.00;100.00
57594;BME280;43423;46.510;6.686;2023-12-22T01:21:30;96204.69;;;7.94;100.00
57594;BME280;43423;46.510;6.686;2023-12-22T01:23:56;96210.81;;;7.89;100.00
57594;BME280;43423;46.510;6.686;2023-12-22T01:26:24;96229.91;;;7.98;100.00
57594;BME280;43423;46.510;6.686;2023-12-22T01:28:50;96232.81;;;7.94;100.00
57594;BME280;43423;46.510;6.686;2023-12-22T01:31:15;96233.09;;;7.96;100.00
57594;BME280;43423;46.510;6.686;2023-12-22T01:33:41;96237.72;;;7.90;100.00
57594;BME280;43423;46.510;6.686;2023-12-22T01:36:07;96252.28;;;7.96;100.00
57594;BME280;43423;46.510;6.686;2023-12-22T01:38:33;96262.66;;;7.92;100.00
57594;BME280;43423;46.510;6.686;2023-12-22T01:40:59;96269.63;;;7.93;100.00
57594;BME280;43423;46.510;6.686;2023-12-22T01:43:25;96271.75;;;7.98;100.00
57594;BME280;43423;46.510;6.686;2023-12-22T01:45:55;96271.44;;;7.96;100.00
57594;BME280;43423;46.510;6.686;2023-12-22T01:48:22;96264.16;;;7.93;100.00
57594;BME280;43423;46.510;6.686;2023-12-22T01:50:50;96256.78;;;7.84;100.00
57594;BME280;43423;46.510;6.686;2023-12-22T01:53:18;96257.44;;;7.70;100.00
57594;BME280;43423;46.510;6.686;2023-12-22T01:55:45;96254.25;;;7.72;100.00
57594;BME280;43423;46.510;6.686;2023-12-22T01:58:12;96270.09;;;7.68;100.00
57594;BME280;43423;46.510;6.686;2023-12-22T02:00:37;96271.00;;;7.65;100.00
57594;BME280;43423;46.510;6.686;2023-12-22T02:03:03;96269.34;;;7.67;100.00
57594;BME280;43423;46.510;6.686;2023-12-22T02:05:29;96250.19;;;7.58;100.00
57594;BME280;43423;46.510;6.686;2023-12-22T02:07:55;96254.41;;;7.68;100.00
57594;BME280;43423;46.510;6.686;2023-12-22T02:10:21;96261.81;;;7.77;100.00
57594;BME280;43423;46.510;6.686;2023-12-22T02:12:47;96253.66;;;7.68;100.00
57594;BME280;43423;46.510;6.686;2023-12-22T02:15:12;96266.41;;;7.71;100.00
57594;BME280;43423;46.510;6.686;2023-12-22T02:17:48;96244.78;;;7.82;100.00
57594;BME280;43423;46.510;6.686;2023-12-22T02:20:14;96251.44;;;7.81;100.00
57594;BME280;43423;46.510;6.686;2023-12-22T02:22:40;96241.22;;;7.67;100.00
57594;BME280;43423;46.510;6.686;2023-12-22T02:25:06;96255.41;;;7.80;100.00
57594;BME280;43423;46.510;6.686;2023-12-22T02:27:48;96252.03;;;7.85;100.00
57594;BME280;43423;46.510;6.686;2023-12-22T02:30:38;96252.81;;;7.86;100.00
57594;BME280;43423;46.510;6.686;2023-12-22T02:33:05;96233.81;;;7.82;100.00
57594;BME280;43423;46.510;6.686;2023-12-22T02:35:35;96238.00;;;7.92;100.00
57594;BME280;43423;46.510;6.686;2023-12-22T02:38:02;96234.97;;;7.66;100.00
57594;BME280;43423;46.510;6.686;2023-12-22T02:40:29;96231.28;;;7.45;100.00
57594;BME280;43423;46.510;6.686;2023-12-22T02:42:55;96219.63;;;7.26;100.00
57594;BME280;43423;46.510;6.686;2023-12-22T02:45:21;96223.34;;;7.14;100.00
57594;BME280;43423;46.510;6.686;2023-12-22T02:47:47;96223.91;;;7.18;100.00
57594;BME280;43423;46.510;6.686;2023-12-22T02:50:14;96216.41;;;7.37;100.00
57594;BME280;43423;46.510;6.686;2023-12-22T02:52:41;96205.84;;;7.54;100.00
57594;BME280;43423;46.510;6.686;2023-12-22T02:55:07;96220.22;;;7.64;100.00
57594;BME280;43423;46.510;6.686;2023-12-22T02:57:33;96216.34;;;7.79;100.00
57594;BME280;43423;46.510;6.686;2023-12-22T02:59:58;96214.75;;;7.88;100.00
57594;BME280;43423;46.510;6.686;2023-12-22T03:02:24;96211.22;;;7.96;100.00
57594;BME280;43423;46.510;6.686;2023-12-22T03:04:50;96219.81;;;8.04;97.35
57594;BME280;43423;46.510;6.686;2023-12-22T03:07:16;96227.94;;;7.98;99.70
57594;BME280;43423;46.510;6.686;2023-12-22T03:09:42;96229.09;;;8.06;95.29
57594;BME280;43423;46.510;6.686;2023-12-22T03:12:09;96225.63;;;8.06;97.00
57594;BME280;43423;46.510;6.686;2023-12-22T03:14:35;96249.13;;;8.12;94.26
57594;BME280;43423;46.510;6.686;2023-12-22T03:17:04;96237.25;;;8.16;96.66
57594;BME280;43423;46.510;6.686;2023-12-22T03:19:30;96238.47;;;8.15;96.12
57594;BME280;43423;46.510;6.686;2023-12-22T03:21:57;96244.25;;;8.17;98.27
57594;BME280;43423;46.510;6.686;2023-12-22T03:24:23;96242.31;;;8.08;100.00
57594;BME280;43423;46.510;6.686;2023-12-22T03:26:49;96244.88;;;7.88;100.00
57594;BME280;43423;46.510;6.686;2023-12-22T03:29:15;96245.34;;;7.86;100.00
57594;BME280;43423;46.510;6.686;2023-12-22T03:31:41;96243.00;;;7.70;100.00
57594;BME280;43423;46.510;6.686;2023-12-22T03:34:07;96241.50;;;7.69;100.00
57594;BME280;43423;46.510;6.686;2023-12-22T03:36:32;96251.31;;;7.51;100.00
57594;BME280;43423;46.510;6.686;2023-12-22T03:38:58;96262.25;;;7.51;100.00
57594;BME280;43423;46.510;6.686;2023-12-22T03:41:24;96272.00;;;7.43;100.00
57594;BME280;43423;46.510;6.686;2023-12-22T03:43:49;96268.97;;;7.41;100.00
57594;BME280;43423;46.510;6.686;2023-12-22T03:46:15;96264.09;;;7.45;100.00
57594;BME280;43423;46.510;6.686;2023-12-22T03:48:40;96278.06;;;7.47;100.00
57594;BME280;43423;46.510;6.686;2023-12-22T03:51:06;96258.06;;;7.32;100.00
57594;BME280;43423;46.510;6.686;2023-12-22T03:53:32;96252.91;;;7.25;100.00
57594;BME280;43423;46.510;6.686;2023-12-22T03:55:57;96250.00;;;7.38;100.00
57594;BME280;43423;46.510;6.686;2023-12-22T03:58:23;96245.09;;;7.51;100.00
57594;BME280;43423;46.510;6.686;2023-12-22T04:00:49;96254.06;;;7.42;100.00
57594;BME280;43423;46.510;6.686;2023-12-22T04:03:14;96250.28;;;7.40;100.00
57594;BME280;43423;46.510;6.686;2023-12-22T04:05:40;96260.75;;;7.41;100.00
57594;BME280;43423;46.510;6.686;2023-12-22T04:08:06;96259.00;;;7.62;100.00
57594;BME280;43423;46.510;6.686;2023-12-22T04:10:31;96268.66;;;7.39;100.00
57594;BME280;43423;46.510;6.686;2023-12-22T04:12:57;96279.00;;;7.44;100.00
57594;BME280;43423;46.510;6.686;2023-12-22T04:15:23;96276.22;;;7.53;100.00
57594;BME280;43423;46.510;6.686;2023-12-22T04:17:48;96275.31;;;7.47;100.00
57594;BME280;43423;46.510;6.686;2023-12-22T04:20:15;96270.56;;;7.57;100.00
57594;BME280;43423;46.510;6.686;2023-12-22T04:22:41;96289.94;;;7.44;100.00
57594;BME280;43423;46.510;6.686;2023-12-22T04:25:07;96292.69;;;7.44;100.00
57594;BME280;43423;46.510;6.686;2023-12-22T04:27:33;96292.34;;;7.51;100.00
57594;BME280;43423;46.510;6.686;2023-12-22T04:29:59;96284.16;;;7.51;100.00
57594;BME280;43423;46.510;6.686;2023-12-22T04:32:25;96275.00;;;7.54;100.00
57594;BME280;43423;46.510;6.686;2023-12-22T04:34:50;96272.09;;;7.58;100.00
57594;BME280;43423;46.510;6.686;2023-12-22T04:37:16;96272.88;;;7.59;100.00
57594;BME280;43423;46.510;6.686;2023-12-22T04:39:42;96277.75;;;7.54;100.00
57594;BME280;43423;46.510;6.686;2023-12-22T04:42:07;96285.38;;;7.50;100.00
57594;BME280;43423;46.510;6.686;2023-12-22T04:44:33;96281.09;;;7.49;100.00
57594;BME280;43423;46.510;6.686;2023-12-22T04:46:58;96281.84;;;7.50;100.00
57594;BME280;43423;46.510;6.686;2023-12-22T04:49:24;96275.63;;;7.49;100.00
57594;BME280;43423;46.510;6.686;2023-12-22T04:51:50;96281.94;;;7.65;100.00
57594;BME280;43423;46.510;6.686;2023-12-22T04:54:15;96285.63;;;7.62;100.00
57594;BME280;43423;46.510;6.686;2023-12-22T04:56:41;96271.84;;;7.47;100.00
57594;BME280;43423;46.510;6.686;2023-12-22T04:59:07;96268.63;;;7.48;100.00
57594;BME280;43423;46.510;6.686;2023-12-22T05:01:33;96280.50;;;7.45;100.00
57594;BME280;43423;46.510;6.686;2023-12-22T05:03:58;96290.66;;;7.54;100.00
57594;BME280;43423;46.510;6.686;2023-12-22T05:06:24;96287.78;;;7.48;100.00
57594;BME280;43423;46.510;6.686;2023-12-22T05:08:50;96291.88;;;7.53;100.00
57594;BME280;43423;46.510;6.686;2023-12-22T05:11:15;96286.69;;;7.55;100.00
57594;BME280;43423;46.510;6.686;2023-12-22T05:13:41;96287.63;;;7.52;100.00
57594;BME280;43423;46.510;6.686;2023-12-22T05:16:08;96295.66;;;7.55;100.00
57594;BME280;43423;46.510;6.686;2023-12-22T05:18:34;96302.31;;;7.64;100.00
57594;BME280;43423;46.510;6.686;2023-12-22T05:20:59;96288.91;;;7.75;100.00
57594;BME280;43423;46.510;6.686;2023-12-22T05:23:25;96296.50;;;7.71;100.00
57594;BME280;43423;46.510;6.686;2023-12-22T05:25:51;96292.56;;;7.72;100.00
57594;BME280;43423;46.510;6.686;2023-12-22T05:28:17;96293.97;;;7.58;100.00
57594;BME280;43423;46.510;6.686;2023-12-22T05:30:42;96305.66;;;7.68;100.00
57594;BME280;43423;46.510;6.686;2023-12-22T05:33:08;96307.63;;;7.67;100.00
57594;BME280;43423;46.510;6.686;2023-12-22T05:35:33;96314.44;;;7.72;100.00
57594;BME280;43423;46.510;6.686;2023-12-22T05:37:59;96320.63;;;7.81;100.00
57594;BME280;43423;46.510;6.686;2023-12-22T05:40:25;96317.94;;;7.72;100.00
57594;BME280;43423;46.510;6.686;2023-12-22T05:42:51;96311.13;;;7.68;100.00
57594;BME280;43423;46.510;6.686;2023-12-22T05:45:16;96309.91;;;7.69;100.00
57594;BME280;43423;46.510;6.686;2023-12-22T05:47:42;96311.72;;;7.72;100.00
57594;BME280;43423;46.510;6.686;2023-12-22T05:50:08;96317.50;;;7.65;100.00
57594;BME280;43423;46.510;6.686;2023-12-22T05:52:34;96323.31;;;7.67;100.00
57594;BME280;43423;46.510;6.686;2023-12-22T05:54:59;96319.22;;;7.62;100.00
57594;BME280;43423;46.510;6.686;2023-12-22T05:57:25;96325.91;;;7.61;100.00
57594;BME280;43423;46.510;6.686;2023-12-22T05:59:51;96336.84;;;7.61;100.00
57594;BME280;43423;46.510;6.686;2023-12-22T06:02:17;96348.56;;;7.62;100.00
57594;BME280;43423;46.510;6.686;2023-12-22T06:04:43;96345.19;;;7.67;100.00
57594;BME280;43423;46.510;6.686;2023-12-22T06:07:10;96345.19;;;7.67;100.00
57594;BME280;43423;46.510;6.686;2023-12-22T06:09:36;96351.56;;;7.64;100.00
57594;BME280;43423;46.510;6.686;2023-12-22T06:12:02;96347.94;;;7.57;100.00
57594;BME280;43423;46.510;6.686;2023-12-22T06:14:28;96350.56;;;7.52;100.00
57594;BME280;43423;46.510;6.686;2023-12-22T06:16:54;96346.00;;;7.49;100.00
57594;BME280;43423;46.510;6.686;2023-12-22T06:19:22;96345.09;;;7.52;100.00
57594;BME280;43423;46.510;6.686;2023-12-22T06:21:49;96357.06;;;7.54;100.00
57594;BME280;43423;46.510;6.686;2023-12-22T06:24:15;96359.34;;;7.56;100.00
57594;BME280;43423;46.510;6.686;2023-12-22T06:26:42;96343.19;;;7.76;100.00
57594;BME280;43423;46.510;6.686;2023-12-22T06:29:08;96348.47;;;7.80;100.00
57594;BME280;43423;46.510;6.686;2023-12-22T06:31:35;96348.78;;;7.82;100.00
57594;BME280;43423;46.510;6.686;2023-12-22T06:34:00;96358.53;;;7.74;100.00
57594;BME280;43423;46.510;6.686;2023-12-22T06:36:28;96353.38;;;7.76;100.00
57594;BME280;43423;46.510;6.686;2023-12-22T06:38:55;96356.00;;;7.61;100.00
57594;BME280;43423;46.510;6.686;2023-12-22T06:41:30;96370.88;;;7.69;100.00
57594;BME280;43423;46.510;6.686;2023-12-22T06:43:57;96385.50;;;7.66;100.00
57594;BME280;43423;46.510;6.686;2023-12-22T06:46:25;96397.34;;;7.63;100.00
57594;BME280;43423;46.510;6.686;2023-12-22T06:48:52;96383.59;;;7.81;100.00
57594;BME280;43423;46.510;6.686;2023-12-22T06:51:22;96375.09;;;7.79;100.00
57594;BME280;43423;46.510;6.686;2023-12-22T06:53:49;96384.25;;;7.67;100.00
57594;BME280;43423;46.510;6.686;2023-12-22T06:58:46;96380.09;;;7.81;100.00
57594;BME280;43423;46.510;6.686;2023-12-22T07:01:22;96379.66;;;7.73;100.00
57594;BME280;43423;46.510;6.686;2023-12-22T07:03:49;96379.69;;;7.64;100.00
57594;BME280;43423;46.510;6.686;2023-12-22T07:06:16;96383.81;;;7.69;100.00
57594;BME280;43423;46.510;6.686;2023-12-22T07:08:42;96381.50;;;7.76;100.00
57594;BME280;43423;46.510;6.686;2023-12-22T07:11:09;96387.69;;;7.86;100.00
57594;BME280;43423;46.510;6.686;2023-12-22T07:13:34;96391.50;;;7.79;100.00
57594;BME280;43423;46.510;6.686;2023-12-22T07:16:01;96396.84;;;7.74;100.00
57594;BME280;43423;46.510;6.686;2023-12-22T07:18:28;96390.47;;;7.77;100.00
57594;BME280;43423;46.510;6.686;2023-12-22T07:21:00;96387.13;;;7.82;100.00
57594;BME280;43423;46.510;6.686;2023-12-22T07:23:25;96382.28;;;7.68;100.00
57594;BME280;43423;46.510;6.686;2023-12-22T07:25:51;96390.28;;;7.80;100.00
57594;BME280;43423;46.510;6.686;2023-12-22T07:28:16;96408.69;;;7.80;100.00
57594;BME280;43423;46.510;6.686;2023-12-22T07:30:42;96404.72;;;7.81;100.00
57594;BME280;43423;46.510;6.686;2023-12-22T07:33:08;96407.94;;;7.79;100.00
57594;BME280;43423;46.510;6.686;2023-12-22T07:35:34;96419.31;;;7.87;100.00
57594;BME280;43423;46.510;6.686;2023-12-22T07:38:00;96432.06;;;7.99;100.00
57594;BME280;43423;46.510;6.686;2023-12-22T07:40:25;96432.94;;;8.15;100.00
57594;BME280;43423;46.510;6.686;2023-12-22T07:42:51;96432.06;;;7.99;100.00
57594;BME280;43423;46.510;6.686;2023-12-22T07:45:17;96435.38;;;8.03;100.00
57594;BME280;43423;46.510;6.686;2023-12-22T07:47:42;96441.63;;;8.04;100.00
57594;BME280;43423;46.510;6.686;2023-12-22T07:50:08;96444.22;;;8.07;100.00
57594;BME280;43423;46.510;6.686;2023-12-22T07:52:35;96445.53;;;8.12;100.00
57594;BME280;43423;46.510;6.686;2023-12-22T07:55:06;96441.16;;;8.05;100.00
57594;BME280;43423;46.510;6.686;2023-12-22T07:57:31;96438.13;;;8.03;100.00
57594;BME280;43423;46.510;6.686;2023-12-22T07:59:57;96451.06;;;8.03;100.00
57594;BME280;43423;46.510;6.686;2023-12-22T08:02:23;96469.50;;;7.93;100.00
57594;BME280;43423;46.510;6.686;2023-12-22T08:04:49;96473.81;;;7.76;100.00
57594;BME280;43423;46.510;6.686;2023-12-22T08:07:15;96475.69;;;8.03;100.00
57594;BME280;43423;46.510;6.686;2023-12-22T08:09:41;96477.41;;;8.00;100.00
57594;BME280;43423;46.510;6.686;2023-12-22T08:12:07;96489.38;;;8.12;100.00
57594;BME280;43423;46.510;6.686;2023-12-22T08:14:33;96510.63;;;8.68;100.00
57594;BME280;43423;46.510;6.686;2023-12-22T08:16:58;96531.41;;;8.51;100.00
57594;BME280;43423;46.510;6.686;2023-12-22T08:19:24;96537.41;;;8.41;100.00
57594;BME280;43423;46.510;6.686;2023-12-22T08:21:54;96542.78;;;8.07;100.00
57594;BME280;43423;46.510;6.686;2023-12-22T08:24:22;96540.69;;;7.84;100.00
57594;BME280;43423;46.510;6.686;2023-12-22T08:26:49;96549.06;;;7.71;100.00
57594;BME280;43423;46.510;6.686;2023-12-22T08:29:15;96542.97;;;7.86;100.00
57594;BME280;43423;46.510;6.686;2023-12-22T08:31:41;96554.25;;;7.60;100.00
57594;BME280;43423;46.510;6.686;2023-12-22T08:34:07;96557.75;;;7.51;100.00
57594;BME280;43423;46.510;6.686;2023-12-22T08:36:32;96565.31;;;7.47;100.00
57594;BME280;43423;46.510;6.686;2023-12-22T08:38:58;96572.91;;;7.34;100.00
57594;BME280;43423;46.510;6.686;2023-12-22T08:41:24;96570.16;;;7.34;100.00
57594;BME280;43423;46.510;6.686;2023-12-22T08:43:50;96579.59;;;7.42;100.00
57594;BME280;43423;46.510;6.686;2023-12-22T08:46:15;96576.84;;;7.42;100.00
57594;BME280;43423;46.510;6.686;2023-12-22T08:48:42;96576.44;;;7.44;100.00
57594;BME280;43423;46.510;6.686;2023-12-22T08:51:07;96583.25;;;7.57;100.00
57594;BME280;43423;46.510;6.686;2023-12-22T08:53:34;96577.78;;;7.57;100.00
57594;BME280;43423;46.510;6.686;2023-12-22T08:56:03;96572.31;;;7.48;100.00
57594;BME280;43423;46.510;6.686;2023-12-22T08:58:29;96570.03;;;7.56;100.00
57594;BME280;43423;46.510;6.686;2023-12-22T09:00:55;96575.38;;;7.60;100.00
57594;BME280;43423;46.510;6.686;2023-12-22T09:03:20;96565.78;;;7.64;100.00
57594;BME280;43423;46.510;6.686;2023-12-22T09:05:46;96577.50;;;7.65;100.00
57594;BME280;43423;46.510;6.686;2023-12-22T09:08:12;96573.22;;;7.64;100.00
57594;BME280;43423;46.510;6.686;2023-12-22T09:10:38;96575.66;;;7.62;100.00
57594;BME280;43423;46.510;6.686;2023-12-22T09:13:04;96580.38;;;7.61;100.00
57594;BME280;43423;46.510;6.686;2023-12-22T09:15:29;96573.53;;;7.56;100.00
57594;BME280;43423;46.510;6.686;2023-12-22T09:17:55;96583.25;;;7.57;100.00
57594;BME280;43423;46.510;6.686;2023-12-22T09:20:21;96586.63;;;7.62;100.00
57594;BME280;43423;46.510;6.686;2023-12-22T09:22:48;96592.84;;;7.62;100.00
57594;BME280;43423;46.510;6.686;2023-12-22T09:25:13;96583.72;;;7.65;100.00
57594;BME280;43423;46.510;6.686;2023-12-22T09:27:39;96580.97;;;7.65;100.00
57594;BME280;43423;46.510;6.686;2023-12-22T09:30:05;96584.81;;;7.68;100.00
57594;BME280;43423;46.510;6.686;2023-12-22T09:32:34;96583.88;;;7.71;100.00
57594;BME280;43423;46.510;6.686;2023-12-22T09:35:00;96591.50;;;7.67;100.00
57594;BME280;43423;46.510;6.686;2023-12-22T09:37:26;96594.38;;;7.72;100.00
57594;BME280;43423;46.510;6.686;2023-12-22T09:39:52;96599.84;;;7.72;100.00
57594;BME280;43423;46.510;6.686;2023-12-22T09:42:20;96603.78;;;7.71;100.00
57594;BME280;43423;46.510;6.686;2023-12-22T09:44:48;96606.25;;;7.69;100.00
57594;BME280;43423;46.510;6.686;2023-12-22T09:47:15;96600.00;;;7.69;100.00
57594;BME280;43423;46.510;6.686;2023-12-22T09:49:43;96603.63;;;7.66;100.00
57594;BME280;43423;46.510;6.686;2023-12-22T09:52:09;96603.63;;;7.66;100.00
57594;BME280;43423;46.510;6.686;2023-12-22T09:54:37;96598.94;;;7.66;100.00
57594;BME280;43423;46.510;6.686;2023-12-22T09:57:03;96593.16;;;7.73;100.00
57594;BME280;43423;46.510;6.686;2023-12-22T09:59:30;96587.25;;;7.75;100.00
57594;BME280;43423;46.510;6.686;2023-12-22T10:01:57;96585.56;;;7.77;100.00
57594;BME280;43423;46.510;6.686;2023-12-22T10:04:24;96574.44;;;7.72;100.00
57594;BME280;43423;46.510;6.686;2023-12-22T10:06:50;96572.34;;;7.67;100.00
57594;BME280;43423;46.510;6.686;2023-12-22T10:09:17;96570.50;;;7.73;100.00
57594;BME280;43423;46.510;6.686;2023-12-22T10:11:43;96569.28;;;7.74;100.00
57594;BME280;43423;46.510;6.686;2023-12-22T10:14:09;96570.50;;;7.82;100.00
57594;BME280;43423;46.510;6.686;2023-12-22T10:16:36;96576.88;;;7.97;100.00
57594;BME280;43423;46.510;6.686;2023-12-22T10:19:03;96562.88;;;7.95;100.00
57594;BME280;43423;46.510;6.686;2023-12-22T10:21:29;96560.16;;;7.86;100.00
57594;BME280;43423;46.510;6.686;2023-12-22T10:23:56;96549.81;;;7.90;100.00
57594;BME280;43423;46.510;6.686;2023-12-22T10:26:22;96542.38;;;7.72;100.00
57594;BME280;43423;46.510;6.686;2023-12-22T10:28:48;96550.72;;;7.87;100.00
57594;BME280;43423;46.510;6.686;2023-12-22T10:31:17;96538.88;;;7.90;100.00
57594;BME280;43423;46.510;6.686;2023-12-22T10:33:43;96530.06;;;7.77;100.00
57594;BME280;43423;46.510;6.686;2023-12-22T10:36:09;96540.72;;;7.75;100.00
57594;BME280;43423;46.510;6.686;2023-12-22T10:38:35;96532.78;;;7.77;100.00
57594;BME280;43423;46.510;6.686;2023-12-22T10:41:02;96515.63;;;7.67;100.00
57594;BME280;43423;46.510;6.686;2023-12-22T10:43:27;96503.91;;;7.57;100.00
57594;BME280;43423;46.510;6.686;2023-12-22T10:45:53;96513.03;;;7.54;100.00
57594;BME280;43423;46.510;6.686;2023-12-22T10:48:19;96493.88;;;7.64;100.00
57594;BME280;43423;46.510;6.686;2023-12-22T10:50:45;96497.97;;;7.77;100.00
57594;BME280;43423;46.510;6.686;2023-12-22T10:53:12;96494.19;;;7.75;100.00
57594;BME280;43423;46.510;6.686;2023-12-22T10:55:38;96504.81;;;7.73;100.00
57594;BME280;43423;46.510;6.686;2023-12-22T10:58:05;96502.69;;;7.77;100.00
57594;BME280;43423;46.510;6.686;2023-12-22T11:00:32;96503.16;;;7.75;100.00
57594;BME280;43423;46.510;6.686;2023-12-22T11:03:04;96489.28;;;7.79;100.00
57594;BME280;43423;46.510;6.686;2023-12-22T11:05:33;96495.19;;;7.96;100.00
57594;BME280;43423;46.510;6.686;2023-12-22T11:08:00;96487.44;;;7.94;100.00
57594;BME280;43423;46.510;6.686;2023-12-22T11:10:30;96476.50;;;7.85;100.00
57594;BME280;43423;46.510;6.686;2023-12-22T11:12:57;96483.19;;;7.93;100.00
57594;BME280;43423;46.510;6.686;2023-12-22T11:15:24;96478.31;;;7.88;100.00
57594;BME280;43423;46.510;6.686;2023-12-22T11:17:51;96474.69;;;7.73;100.00
57594;BME280;43423;46.510;6.686;2023-12-22T11:20:18;96486.25;;;7.77;100.00
57594;BME280;43423;46.510;6.686;2023-12-22T11:22:44;96493.13;;;7.63;100.00
57594;BME280;43423;46.510;6.686;2023-12-22T11:25:10;96488.88;;;7.53;100.00
57594;BME280;43423;46.510;6.686;2023-12-22T11:27:37;96482.94;;;7.54;100.00
57594;BME280;43423;46.510;6.686;2023-12-22T11:30:04;96487.34;;;7.52;100.00
57594;BME280;43423;46.510;6.686;2023-12-22T11:32:30;96484.44;;;7.65;100.00
57594;BME280;43423;46.510;6.686;2023-12-22T11:34:56;96478.53;;;7.57;100.00
57594;BME280;43423;46.510;6.686;2023-12-22T11:37:22;96489.03;;;7.40;100.00
57594;BME280;43423;46.510;6.686;2023-12-22T11:39:48;96482.47;;;7.65;100.00
57594;BME280;43423;46.510;6.686;2023-12-22T11:42:18;96483.53;;;7.49;100.00
57594;BME280;43423;46.510;6.686;2023-12-22T11:44:45;96472.47;;;7.35;100.00
57594;BME280;43423;46.510;6.686;2023-12-22T11:47:11;96473.22;;;7.44;100.00
57594;BME280;43423;46.510;6.686;2023-12-22T11:49:38;96473.22;;;7.53;100.00
57594;BME280;43423;46.510;6.686;2023-12-22T11:52:18;96469.88;;;7.40;100.00
57594;BME280;43423;46.510;6.686;2023-12-22T11:54:48;96454.53;;;7.43;100.00
57594;BME280;43423;46.510;6.686;2023-12-22T11:59:54;96452.53;;;7.62;100.00
57594;BME280;43423;46.510;6.686;2023-12-22T12:02:20;96455.41;;;7.67;100.00
57594;BME280;43423;46.510;6.686;2023-12-22T12:04:53;96448.72;;;7.50;100.00
57594;BME280;43423;46.510;6.686;2023-12-22T12:10:10;96458.78;;;7.53;100.00
57594;BME280;43423;46.510;6.686;2023-12-22T12:12:35;96455.56;;;7.64;100.00
57594;BME280;43423;46.510;6.686;2023-12-22T12:15:07;96449.19;;;7.57;100.00
57594;BME280;43423;46.510;6.686;2023-12-22T12:17:37;96445.41;;;7.55;100.00
57594;BME280;43423;46.510;6.686;2023-12-22T12:20:08;96444.63;;;7.64;100.00
57594;BME280;43423;46.510;6.686;2023-12-22T12:22:35;96443.72;;;7.57;100.00
57594;BME280;43423;46.510;6.686;2023-12-22T12:25:07;96432.47;;;7.55;100.00
57594;BME280;43423;46.510;6.686;2023-12-22T12:27:34;96426.84;;;7.50;100.00
57594;BME280;43423;46.510;6.686;2023-12-22T12:30:13;96428.25;;;7.45;100.00
57594;BME280;43423;46.510;6.686;2023-12-22T12:32:41;96434.28;;;7.49;100.00
57594;BME280;43423;46.510;6.686;2023-12-22T12:35:07;96435.22;;;7.46;100.00
57594;BME280;43423;46.510;6.686;2023-12-22T12:37:33;96430.66;;;7.34;100.00
57594;BME280;43423;46.510;6.686;2023-12-22T12:40:01;96422.16;;;7.41;100.00
57594;BME280;43423;46.510;6.686;2023-12-22T12:42:30;96433.25;;;7.38;100.00
57594;BME280;43423;46.510;6.686;2023-12-22T12:44:59;96444.97;;;7.38;100.00
57594;BME280;43423;46.510;6.686;2023-12-22T12:47:24;96434.91;;;7.26;100.00
57594;BME280;43423;46.510;6.686;2023-12-22T12:49:57;96439.66;;;7.35;100.00
57594;BME280;43423;46.510;6.686;2023-12-22T12:52:24;96438.56;;;7.41;100.00
57594;BME280;43423;46.510;6.686;2023-12-22T12:54:51;96433.72;;;7.45;100.00
57594;BME280;43423;46.510;6.686;2023-12-22T12:57:17;96430.19;;;7.54;100.00
57594;BME280;43423;46.510;6.686;2023-12-22T12:59:51;96434.75;;;7.48;100.00
57594;BME280;43423;46.510;6.686;2023-12-22T13:02:17;96435.53;;;7.39;100.00
57594;BME280;43423;46.510;6.686;2023-12-22T13:04:43;96436.16;;;7.25;100.00